createdAt,value
2023-05-06T00:00:20.537Z,100.00
2023-05-06T00:02:46.909Z,100.00
2023-05-06T00:05:13.390Z,100.00
2023-05-06T00:07:39.878Z,100.00
2023-05-06T00:10:06.515Z,100.00
2023-05-06T00:12:32.861Z,100.00
2023-05-06T00:14:59.346Z,100.00
2023-05-06T00:17:25.792Z,100.00
2023-05-06T00:19:52.323Z,100.00
2023-05-06T00:22:18.686Z,100.00
2023-05-06T00:24:44.999Z,100.00
2023-05-06T00:27:11.399Z,100.00
2023-05-06T00:29:37.819Z,100.00
2023-05-06T00:32:04.590Z,100.00
2023-05-06T00:34:30.998Z,100.00
2023-05-06T00:36:57.376Z,100.00
2023-05-06T00:39:25.101Z,100.00
2023-05-06T00:41:51.614Z,100.00
2023-05-06T00:44:18.033Z,100.00
2023-05-06T00:46:44.521Z,100.00
2023-05-06T00:49:11.758Z,100.00
2023-05-06T00:51:38.394Z,100.00
2023-05-06T00:54:05.208Z,100.00
2023-05-06T00:56:31.726Z,100.00
2023-05-06T00:58:58.631Z,100.00
2023-05-06T01:01:25.526Z,100.00
2023-05-06T01:03:52.060Z,100.00
2023-05-06T01:06:45.136Z,100.00
2023-05-06T01:09:21.146Z,100.00
2023-05-06T01:12:09.425Z,100.00
2023-05-06T01:14:49.864Z,100.00
2023-05-06T01:17:18.769Z,100.00
2023-05-06T01:19:52.103Z,100.00
2023-05-06T01:22:19.361Z,100.00
2023-05-06T01:24:46.699Z,100.00
2023-05-06T01:27:14.380Z,100.00
2023-05-06T01:29:43.078Z,100.00
2023-05-06T01:32:41.940Z,100.00
2023-05-06T01:35:35.610Z,100.00
2023-05-06T01:38:16.049Z,100.00
2023-05-06T01:40:44.777Z,100.00
2023-05-06T01:43:13.465Z,100.00
2023-05-06T01:45:41.401Z,100.00
2023-05-06T01:48:09.608Z,100.00
2023-05-06T01:50:36.876Z,100.00
2023-05-06T01:53:03.449Z,100.00
2023-05-06T01:55:29.855Z,100.00
2023-05-06T01:57:56.602Z,100.00
2023-05-06T02:00:24.123Z,100.00
2023-05-06T02:02:50.993Z,100.00
2023-05-06T02:05:17.583Z,100.00
2023-05-06T02:07:44.009Z,100.00
2023-05-06T02:10:10.640Z,100.00
2023-05-06T02:12:37.026Z,100.00
2023-05-06T02:15:03.655Z,100.00
2023-05-06T02:17:29.970Z,100.00
2023-05-06T02:19:56.411Z,100.00
2023-05-06T02:22:22.877Z,100.00
2023-05-06T02:24:49.175Z,100.00
2023-05-06T02:27:15.457Z,100.00
2023-05-06T02:29:41.859Z,100.00
2023-05-06T02:32:08.381Z,100.00
2023-05-06T02:34:34.674Z,100.00
2023-05-06T02:37:01.351Z,100.00
2023-05-06T02:39:27.711Z,100.00
2023-05-06T02:41:54.386Z,100.00
2023-05-06T02:44:20.712Z,100.00
2023-05-06T02:46:47.030Z,100.00
2023-05-06T02:49:13.457Z,100.00
2023-05-06T02:51:39.988Z,100.00
2023-05-06T02:54:06.688Z,100.00
2023-05-06T02:56:33.017Z,100.00
2023-05-06T02:58:59.442Z,100.00
2023-05-06T03:01:25.824Z,100.00
2023-05-06T03:03:52.332Z,100.00
2023-05-06T03:06:18.900Z,100.00
2023-05-06T03:08:45.302Z,100.00
2023-05-06T03:11:11.609Z,100.00
2023-05-06T03:13:38.186Z,100.00
2023-05-06T03:16:04.817Z,100.00
2023-05-06T03:18:31.138Z,100.00
2023-05-06T03:20:57.457Z,100.00
2023-05-06T03:23:23.863Z,100.00
2023-05-06T03:25:50.445Z,100.00
2023-05-06T03:28:16.851Z,100.00
2023-05-06T03:30:43.324Z,100.00
2023-05-06T03:33:09.629Z,100.00
2023-05-06T03:35:36.021Z,100.00
2023-05-06T03:38:02.566Z,100.00
2023-05-06T03:40:29.097Z,100.00
2023-05-06T03:42:55.404Z,100.00
2023-05-06T03:45:21.706Z,100.00
2023-05-06T03:47:48.482Z,100.00
2023-05-06T03:50:14.981Z,100.00
2023-05-06T03:52:41.725Z,100.00
2023-05-06T03:55:08.656Z,100.00
2023-05-06T03:57:35.244Z,100.00
2023-05-06T04:00:01.855Z,100.00
2023-05-06T04:02:28.285Z,100.00
2023-05-06T04:04:54.809Z,100.00
2023-05-06T04:07:21.147Z,100.00
2023-05-06T04:09:47.871Z,100.00
2023-05-06T04:12:14.224Z,100.00
2023-05-06T04:14:40.602Z,100.00
2023-05-06T04:17:06.921Z,100.00
2023-05-06T04:19:33.323Z,100.00
2023-05-06T04:21:59.615Z,100.00
2023-05-06T04:24:26.044Z,100.00
2023-05-06T04:26:52.420Z,100.00
2023-05-06T04:29:18.951Z,100.00
2023-05-06T04:31:45.392Z,100.00
2023-05-06T04:34:11.708Z,100.00
2023-05-06T04:36:40.612Z,100.00
2023-05-06T04:39:07.143Z,100.00
2023-05-06T04:41:33.658Z,100.00
2023-05-06T04:44:00.169Z,100.00
2023-05-06T04:46:26.590Z,100.00
2023-05-06T04:48:52.988Z,100.00
2023-05-06T04:51:19.353Z,100.00
2023-05-06T04:53:45.926Z,100.00
2023-05-06T04:56:12.644Z,100.00
2023-05-06T04:58:39.470Z,100.00
2023-05-06T05:01:09.272Z,100.00
2023-05-06T05:03:36.046Z,100.00
2023-05-06T05:06:02.780Z,100.00
2023-05-06T05:08:29.102Z,100.00
2023-05-06T05:10:55.564Z,100.00
2023-05-06T05:13:21.915Z,100.00
2023-05-06T05:15:48.738Z,100.00
2023-05-06T05:18:15.044Z,100.00
2023-05-06T05:20:41.428Z,100.00
2023-05-06T05:23:07.756Z,100.00
2023-05-06T05:25:34.297Z,100.00
2023-05-06T05:28:00.666Z,100.00
2023-05-06T05:30:27.115Z,100.00
2023-05-06T05:32:53.641Z,100.00
2023-05-06T05:35:20.108Z,100.00
2023-05-06T05:37:46.512Z,100.00
2023-05-06T05:40:13.313Z,100.00
2023-05-06T05:42:40.207Z,100.00
2023-05-06T05:45:07.686Z,100.00
2023-05-06T05:47:34.545Z,100.00
2023-05-06T05:50:00.906Z,100.00
2023-05-06T05:52:27.470Z,100.00
2023-05-06T05:54:53.910Z,100.00
2023-05-06T05:57:20.283Z,100.00
2023-05-06T05:59:46.685Z,100.00
2023-05-06T06:02:13.070Z,100.00
2023-05-06T06:04:41.241Z,100.00
2023-05-06T06:07:07.713Z,100.00
2023-05-06T06:09:34.342Z,100.00
2023-05-06T06:12:00.820Z,100.00
2023-05-06T06:14:27.326Z,100.00
2023-05-06T06:16:53.824Z,100.00
2023-05-06T06:19:20.585Z,100.00
2023-05-06T06:21:46.889Z,100.00
2023-05-06T06:24:13.320Z,99.39
2023-05-06T06:26:39.727Z,100.00
2023-05-06T06:29:06.096Z,100.00
2023-05-06T06:31:32.683Z,98.21
2023-05-06T06:33:59.045Z,99.13
2023-05-06T06:36:25.580Z,100.00
2023-05-06T06:38:52.233Z,100.00
2023-05-06T06:41:18.641Z,98.64
2023-05-06T06:43:44.934Z,99.71
2023-05-06T06:46:11.359Z,96.90
2023-05-06T06:48:37.787Z,96.03
2023-05-06T06:51:04.457Z,94.47
2023-05-06T06:53:30.992Z,98.20
2023-05-06T06:55:57.303Z,100.00
2023-05-06T06:58:23.696Z,96.21
2023-05-06T07:00:50.006Z,97.39
2023-05-06T07:03:16.345Z,97.78
2023-05-06T07:05:42.772Z,94.74
2023-05-06T07:08:09.182Z,96.33
2023-05-06T07:10:35.520Z,97.97
2023-05-06T07:13:02.121Z,97.31
2023-05-06T07:15:28.730Z,94.69
2023-05-06T07:17:55.512Z,92.84
2023-05-06T07:20:21.931Z,94.11
2023-05-06T07:22:48.417Z,94.23
2023-05-06T07:25:15.005Z,91.69
2023-05-06T07:27:41.324Z,92.30
2023-05-06T07:30:08.290Z,92.81
2023-05-06T07:32:34.650Z,91.25
2023-05-06T07:35:01.437Z,90.33
2023-05-06T07:37:28.160Z,90.22
2023-05-06T07:39:54.554Z,92.99
2023-05-06T07:42:20.967Z,92.98
2023-05-06T07:44:47.312Z,90.73
2023-05-06T07:47:25.920Z,87.78
2023-05-06T07:49:52.428Z,89.78
2023-05-06T07:52:18.740Z,90.07
2023-05-06T07:54:45.181Z,89.35
2023-05-06T07:57:11.483Z,88.04
2023-05-06T07:59:38.293Z,87.19
2023-05-06T08:02:04.661Z,84.82
2023-05-06T08:04:31.163Z,89.60
2023-05-06T08:06:57.754Z,87.81
2023-05-06T08:09:25.684Z,83.82
2023-05-06T08:11:53.446Z,82.62
2023-05-06T08:14:19.851Z,79.76
2023-05-06T08:16:46.802Z,80.34
2023-05-06T08:19:13.140Z,77.01
2023-05-06T08:21:39.478Z,71.02
2023-05-06T08:24:06.178Z,73.16
2023-05-06T08:26:32.636Z,71.77
2023-05-06T08:28:59.054Z,70.92
2023-05-06T08:31:25.563Z,70.32
2023-05-06T08:33:54.344Z,72.34
2023-05-06T08:36:21.187Z,72.20
2023-05-06T08:38:47.613Z,71.00
2023-05-06T08:41:17.049Z,68.94
2023-05-06T08:43:45.604Z,66.04
2023-05-06T08:46:12.012Z,66.88
2023-05-06T08:48:39.305Z,69.12
2023-05-06T08:51:05.662Z,70.48
2023-05-06T08:53:33.681Z,69.67
2023-05-06T08:56:06.550Z,69.03
2023-05-06T08:58:34.721Z,64.35
2023-05-06T09:01:03.161Z,63.28
2023-05-06T09:03:29.815Z,62.40
2023-05-06T09:05:57.247Z,63.42
2023-05-06T09:08:23.816Z,61.30
2023-05-06T09:10:50.818Z,58.42
2023-05-06T09:13:18.777Z,59.32
2023-05-06T09:15:47.533Z,58.45
2023-05-06T09:18:14.714Z,59.42
2023-05-06T09:20:44.981Z,56.82
2023-05-06T09:23:13.965Z,55.80
2023-05-06T09:25:41.438Z,53.25
2023-05-06T09:28:10.485Z,53.68
2023-05-06T09:30:41.179Z,54.17
2023-05-06T09:33:07.785Z,52.87
2023-05-06T09:35:42.786Z,55.62
2023-05-06T09:38:10.399Z,55.47
2023-05-06T09:40:38.125Z,53.71
2023-05-06T09:43:05.978Z,54.53
2023-05-06T09:45:32.602Z,52.93
2023-05-06T09:47:59.179Z,49.59
2023-05-06T09:50:25.637Z,51.07
2023-05-06T09:52:52.249Z,51.04
2023-05-06T09:55:22.076Z,53.56
2023-05-06T09:57:50.162Z,55.25
2023-05-06T10:00:17.352Z,50.98
2023-05-06T10:02:45.118Z,47.01
2023-05-06T10:05:12.881Z,46.00
2023-05-06T10:07:40.785Z,44.90
2023-05-06T10:10:09.555Z,42.25
2023-05-06T10:12:38.007Z,42.97
2023-05-06T10:15:05.442Z,45.33
2023-05-06T10:17:35.270Z,42.58
2023-05-06T10:20:02.430Z,44.75
2023-05-06T10:22:40.898Z,43.46
2023-05-06T10:25:26.912Z,48.91
2023-05-06T10:27:53.242Z,41.57
2023-05-06T10:30:20.138Z,44.58
2023-05-06T10:32:46.569Z,45.69
2023-05-06T10:35:22.589Z,48.76
2023-05-06T10:37:51.285Z,52.13
2023-05-06T10:40:19.246Z,49.21
2023-05-06T10:42:45.555Z,51.00
2023-05-06T10:45:12.152Z,49.94
2023-05-06T10:47:56.921Z,49.74
2023-05-06T10:50:24.745Z,51.87
2023-05-06T10:52:55.921Z,49.77
2023-05-06T10:55:36.735Z,52.00
2023-05-06T10:58:21.162Z,52.65
2023-05-06T11:00:54.451Z,53.39
2023-05-06T11:03:23.847Z,52.67
2023-05-06T11:05:51.543Z,51.77
2023-05-06T11:08:22.724Z,52.27
2023-05-06T11:10:49.432Z,51.49
2023-05-06T11:13:25.898Z,53.12
2023-05-06T11:15:53.656Z,51.53
2023-05-06T11:18:26.103Z,50.84
2023-05-06T11:21:02.328Z,52.04
2023-05-06T11:23:47.071Z,51.32
2023-05-06T11:26:14.078Z,49.91
2023-05-06T11:28:43.486Z,47.93
2023-05-06T11:31:10.338Z,48.98
2023-05-06T11:33:37.496Z,53.48
2023-05-06T11:36:04.885Z,52.13
2023-05-06T11:38:45.669Z,52.11
2023-05-06T11:41:12.937Z,48.39
2023-05-06T11:43:39.392Z,49.76
2023-05-06T11:46:05.953Z,47.89
2023-05-06T11:48:32.288Z,49.87
2023-05-06T11:50:58.738Z,51.29
2023-05-06T11:53:25.188Z,50.38
2023-05-06T11:55:53.462Z,51.24
2023-05-06T11:58:26.545Z,51.96
2023-05-06T12:00:54.927Z,52.91
2023-05-06T12:03:22.301Z,51.88
2023-05-06T12:05:50.034Z,50.43
2023-05-06T12:08:26.640Z,52.97
2023-05-06T12:10:56.667Z,52.76
2023-05-06T12:13:23.412Z,52.97
2023-05-06T12:15:50.459Z,53.83
2023-05-06T12:18:17.382Z,55.31
2023-05-06T12:20:44.261Z,51.07
2023-05-06T12:23:12.957Z,50.20
2023-05-06T12:25:40.793Z,48.66
2023-05-06T12:28:21.022Z,51.91
2023-05-06T12:30:47.743Z,48.60
2023-05-06T12:33:14.141Z,48.73
2023-05-06T12:38:18.065Z,50.43
2023-05-06T12:40:52.184Z,47.36
2023-05-06T12:43:18.596Z,49.29
2023-05-06T12:46:03.491Z,49.88
2023-05-06T12:48:30.016Z,45.19
2023-05-06T12:50:56.463Z,44.74
2023-05-06T12:53:41.075Z,45.64
2023-05-06T12:56:07.674Z,43.50
2023-05-06T12:58:34.095Z,45.56
2023-05-06T13:01:00.433Z,45.72
2023-05-06T13:03:27.054Z,46.39
2023-05-06T13:05:54.086Z,46.88
2023-05-06T13:08:20.552Z,46.96
2023-05-06T13:10:47.022Z,48.73
2023-05-06T13:13:13.472Z,49.28
2023-05-06T13:15:39.944Z,49.77
2023-05-06T13:18:06.436Z,49.60
2023-05-06T13:20:32.833Z,50.71
2023-05-06T13:22:59.232Z,49.90
2023-05-06T13:25:25.534Z,50.71
2023-05-06T13:27:53.105Z,50.27
2023-05-06T13:30:19.542Z,50.54
2023-05-06T13:32:46.713Z,48.71
2023-05-06T13:35:13.417Z,50.36
2023-05-06T13:37:39.886Z,48.75
2023-05-06T13:40:07.112Z,49.06
2023-05-06T13:42:33.510Z,47.27
2023-05-06T13:44:59.799Z,48.14
2023-05-06T13:47:26.241Z,48.93
2023-05-06T13:49:52.675Z,47.92
2023-05-06T13:52:19.051Z,48.60
2023-05-06T13:54:45.484Z,48.66
2023-05-06T13:57:11.792Z,49.78
2023-05-06T13:59:38.221Z,49.03
2023-05-06T14:02:08.022Z,48.54
2023-05-06T14:04:35.506Z,48.26
2023-05-06T14:07:02.026Z,48.36
2023-05-06T14:09:28.390Z,45.29
2023-05-06T14:11:54.917Z,45.15
2023-05-06T14:14:21.498Z,45.83
2023-05-06T14:16:47.940Z,45.24
2023-05-06T14:19:14.566Z,45.70
2023-05-06T14:21:41.020Z,45.37
2023-05-06T14:24:08.037Z,44.24
2023-05-06T14:26:34.778Z,45.60
2023-05-06T14:29:01.136Z,45.91
2023-05-06T14:31:27.509Z,46.79
2023-05-06T14:33:53.893Z,47.88
2023-05-06T14:36:20.311Z,47.96
2023-05-06T14:38:46.665Z,47.19
2023-05-06T14:41:13.342Z,46.89
2023-05-06T14:43:39.693Z,48.47
2023-05-06T14:46:06.158Z,48.70
2023-05-06T14:48:32.538Z,50.19
2023-05-06T14:50:59.482Z,48.77
2023-05-06T14:53:25.873Z,48.08
2023-05-06T14:55:52.287Z,48.02
2023-05-06T14:58:18.719Z,48.51
2023-05-06T15:00:45.216Z,47.05
2023-05-06T15:03:11.896Z,47.13
2023-05-06T15:05:38.333Z,46.92
2023-05-06T15:08:04.694Z,47.38
2023-05-06T15:10:31.122Z,45.92
2023-05-06T15:12:57.500Z,45.69
2023-05-06T15:15:24.031Z,46.82
2023-05-06T15:17:50.415Z,45.36
2023-05-06T15:20:16.741Z,45.40
2023-05-06T15:22:43.255Z,46.30
2023-05-06T15:25:16.603Z,46.46
2023-05-06T15:27:49.055Z,46.12
2023-05-06T15:30:15.560Z,46.27
2023-05-06T15:32:42.053Z,45.45
2023-05-06T15:35:08.875Z,44.52
2023-05-06T15:37:36.138Z,41.28
2023-05-06T15:40:02.491Z,41.46
2023-05-06T15:42:29.570Z,40.60
2023-05-06T15:44:55.877Z,40.50
2023-05-06T15:47:22.202Z,40.38
2023-05-06T15:49:54.350Z,41.45
2023-05-06T15:52:21.427Z,42.58
2023-05-06T15:54:50.023Z,42.57
2023-05-06T15:57:17.020Z,42.44
2023-05-06T15:59:43.579Z,42.27
2023-05-06T16:04:39.444Z,45.34
2023-05-06T16:07:05.918Z,44.84
2023-05-06T16:09:32.257Z,44.94
2023-05-06T16:11:58.660Z,43.46
2023-05-06T16:14:25.009Z,44.31
2023-05-06T16:16:51.434Z,45.87
2023-05-06T16:19:17.858Z,45.05
2023-05-06T16:21:44.167Z,44.91
2023-05-06T16:24:10.671Z,43.78
2023-05-06T16:26:37.340Z,45.05
2023-05-06T16:29:03.678Z,46.01
2023-05-06T16:31:30.321Z,45.24
2023-05-06T16:33:57.042Z,44.15
2023-05-06T16:36:23.361Z,44.42
2023-05-06T16:38:49.762Z,44.63
2023-05-06T16:41:16.157Z,44.94
2023-05-06T16:43:42.458Z,43.93
2023-05-06T16:46:08.857Z,44.15
2023-05-06T16:48:35.273Z,43.84
2023-05-06T16:51:01.654Z,42.70
2023-05-06T16:53:28.201Z,42.62
2023-05-06T16:55:55.248Z,42.66
2023-05-06T16:58:21.951Z,42.67
2023-05-06T17:00:48.636Z,43.44
2023-05-06T17:03:15.223Z,44.02
2023-05-06T17:05:41.609Z,44.79
2023-05-06T17:08:08.296Z,44.03
2023-05-06T17:10:35.127Z,44.39
2023-05-06T17:13:01.549Z,45.44
2023-05-06T17:15:27.979Z,46.46
2023-05-06T17:17:54.304Z,46.83
2023-05-06T17:20:20.700Z,46.97
2023-05-06T17:22:47.077Z,47.76
2023-05-06T17:25:13.586Z,48.23
2023-05-06T17:27:40.131Z,49.02
2023-05-06T17:30:07.687Z,49.31
2023-05-06T17:32:34.091Z,49.23
2023-05-06T17:35:00.502Z,49.69
2023-05-06T17:37:26.877Z,50.36
2023-05-06T17:39:53.309Z,49.96
2023-05-06T17:42:19.732Z,50.44
2023-05-06T17:44:46.114Z,51.64
2023-05-06T17:47:12.852Z,52.07
2023-05-06T17:49:39.233Z,52.05
2023-05-06T17:52:05.674Z,53.37
2023-05-06T17:54:32.004Z,53.07
2023-05-06T17:56:58.404Z,53.64
2023-05-06T17:59:26.180Z,53.37
2023-05-06T18:01:54.037Z,53.32
2023-05-06T18:04:20.342Z,54.06
2023-05-06T18:06:46.712Z,54.83
2023-05-06T18:09:13.032Z,55.37
2023-05-06T18:11:39.572Z,55.63
2023-05-06T18:14:06.003Z,55.49
2023-05-06T18:16:32.609Z,56.15
2023-05-06T18:18:59.049Z,56.54
2023-05-06T18:21:25.345Z,56.22
2023-05-06T18:23:58.668Z,56.97
2023-05-06T18:26:43.822Z,57.71
2023-05-06T18:29:12.018Z,57.91
2023-05-06T18:31:38.667Z,59.13
2023-05-06T18:34:05.211Z,59.46
2023-05-06T18:36:31.516Z,60.08
2023-05-06T18:38:57.881Z,60.61
2023-05-06T18:41:24.453Z,62.90
2023-05-06T18:43:50.887Z,62.19
2023-05-06T18:46:17.288Z,62.88
2023-05-06T18:48:43.711Z,63.50
2023-05-06T18:51:14.893Z,63.78
2023-05-06T18:53:41.678Z,64.61
2023-05-06T18:56:09.006Z,65.24
2023-05-06T18:58:36.911Z,65.70
2023-05-06T19:01:04.436Z,65.88
2023-05-06T19:03:32.839Z,65.90
2023-05-06T19:06:00.310Z,67.04
2023-05-06T19:08:26.765Z,66.76
2023-05-06T19:10:53.118Z,67.64
2023-05-06T19:13:19.671Z,66.93
2023-05-06T19:15:46.114Z,67.39
2023-05-06T19:18:12.668Z,67.24
2023-05-06T19:20:38.961Z,66.51
2023-05-06T19:23:05.368Z,67.78
2023-05-06T19:25:35.496Z,68.16
2023-05-06T19:28:02.030Z,68.97
2023-05-06T19:30:31.150Z,69.46
2023-05-06T19:32:58.523Z,69.77
2023-05-06T19:35:25.057Z,69.88
2023-05-06T19:37:51.679Z,69.98
2023-05-06T19:40:18.058Z,70.42
2023-05-06T19:42:45.177Z,71.07
2023-05-06T19:45:12.442Z,72.02
2023-05-06T19:47:39.171Z,72.11
2023-05-06T19:50:06.507Z,72.87
2023-05-06T19:52:33.159Z,73.13
2023-05-06T19:55:00.295Z,74.53
2023-05-06T19:57:26.655Z,74.64
2023-05-06T19:59:53.961Z,75.24
2023-05-06T20:02:20.608Z,75.10
2023-05-06T20:04:47.068Z,75.56
2023-05-06T20:07:13.497Z,76.05
2023-05-06T20:09:39.838Z,76.28
2023-05-06T20:12:07.059Z,76.50
2023-05-06T20:14:33.347Z,77.11
2023-05-06T20:16:59.752Z,77.76
2023-05-06T20:19:26.044Z,78.78
2023-05-06T20:21:52.364Z,79.11
2023-05-06T20:24:18.749Z,79.33
2023-05-06T20:26:45.042Z,80.44
2023-05-06T20:29:11.438Z,79.86
2023-05-06T20:31:37.911Z,80.22
2023-05-06T20:34:04.321Z,80.75
2023-05-06T20:36:30.656Z,81.11
2023-05-06T20:38:57.031Z,81.64
2023-05-06T20:41:23.386Z,82.02
2023-05-06T20:43:51.008Z,81.37
2023-05-06T20:46:17.753Z,81.56
2023-05-06T20:48:44.256Z,82.21
2023-05-06T20:51:10.798Z,82.72
2023-05-06T20:53:37.156Z,82.45
2023-05-06T20:56:03.684Z,82.91
2023-05-06T20:58:30.090Z,83.42
2023-05-06T21:00:57.826Z,83.67
2023-05-06T21:03:24.484Z,83.53
2023-05-06T21:05:52.093Z,84.25
2023-05-06T21:08:18.538Z,83.50
2023-05-06T21:10:44.828Z,84.44
2023-05-06T21:13:11.418Z,84.78
2023-05-06T21:15:38.055Z,84.05
2023-05-06T21:18:04.526Z,84.45
2023-05-06T21:20:30.966Z,85.02
2023-05-06T21:22:58.741Z,84.87
2023-05-06T21:25:25.209Z,85.61
2023-05-06T21:27:51.773Z,85.91
2023-05-06T21:30:18.167Z,84.01
2023-05-06T21:32:44.553Z,84.73
2023-05-06T21:35:11.492Z,85.65
2023-05-06T21:37:38.161Z,85.97
2023-05-06T21:40:05.029Z,86.14
2023-05-06T21:42:31.481Z,85.37
2023-05-06T21:44:57.779Z,86.16
2023-05-06T21:47:25.773Z,85.70
2023-05-06T21:49:52.228Z,85.23
2023-05-06T21:52:18.611Z,86.10
2023-05-06T21:54:47.776Z,84.71
2023-05-06T21:57:14.180Z,85.18
2023-05-06T21:59:40.654Z,85.63
2023-05-06T22:02:07.042Z,86.00
2023-05-06T22:04:33.582Z,86.62
2023-05-06T22:07:00.041Z,87.24
2023-05-06T22:09:26.421Z,86.88
2023-05-06T22:11:52.798Z,87.03
2023-05-06T22:14:21.912Z,87.43
2023-05-06T22:16:50.854Z,86.52
2023-05-06T22:19:17.164Z,87.09
2023-05-06T22:21:43.537Z,87.08
2023-05-06T22:24:10.042Z,86.61
2023-05-06T22:26:36.348Z,87.64
2023-05-06T22:29:02.808Z,88.83
2023-05-06T22:31:29.180Z,89.14
2023-05-06T22:33:55.782Z,88.46
2023-05-06T22:36:22.155Z,90.49
2023-05-06T22:38:48.544Z,91.37
2023-05-06T22:41:14.840Z,90.40
2023-05-06T22:43:41.223Z,90.07
2023-05-06T22:46:07.574Z,90.60
2023-05-06T22:48:34.037Z,92.07
2023-05-06T22:51:00.826Z,92.91
2023-05-06T22:53:27.153Z,92.00
2023-05-06T22:55:54.078Z,91.39
2023-05-06T22:58:20.565Z,92.54
2023-05-06T23:00:47.140Z,94.23
2023-05-06T23:03:14.568Z,95.44
2023-05-06T23:05:41.330Z,94.87
2023-05-06T23:08:07.911Z,94.93
2023-05-06T23:10:34.327Z,95.12
2023-05-06T23:13:01.783Z,95.44
2023-05-06T23:15:28.822Z,95.89
2023-05-06T23:17:55.307Z,95.93
2023-05-06T23:20:22.115Z,96.24
2023-05-06T23:22:48.422Z,95.35
2023-05-06T23:25:15.242Z,96.08
2023-05-06T23:27:42.998Z,94.83
2023-05-06T23:30:10.497Z,92.64
2023-05-06T23:32:37.209Z,93.93
2023-05-06T23:35:04.230Z,94.11
2023-05-06T23:37:31.066Z,94.36
2023-05-06T23:39:57.814Z,95.50
2023-05-06T23:42:25.757Z,93.47
2023-05-06T23:44:52.904Z,95.12
2023-05-06T23:47:19.231Z,94.32
2023-05-06T23:49:45.643Z,92.50
2023-05-06T23:52:12.106Z,93.72
2023-05-06T23:54:38.419Z,95.31
2023-05-06T23:57:07.020Z,92.46
2023-05-06T23:59:33.508Z,92.56
